Terminal Aerodrome Forecast
Issued by NWS Paducah, KY

Home | Current Version | Previous Version | Text Only | Print | Product List | Glossary Off
Versions: 1 2 3 4 5 6 7 8 9 10 11 12 13 14 15 16 17 18 19

729
FTUS43 KPAH 180520
TAFEVV
TAF
KEVV 180520Z 1806/1906 19004KT P6SM OVC005
      TEMPO 1806/1808 4SM BR OVC003
     FM180800 19003KT 2SM -DZ BR OVC003
     FM181700 22009KT 4SM BR SCT005 OVC010
     FM182100 22007KT P6SM OVC025
     FM190000 21005KT P6SM SCT030=

USA.gov is the U.S. government's official web portal to all federal, state and local government web resources and services.